sensor_id;sensor_type;location;lat;lon;timestamp;pressure;altitude;pressure_sealevel;temperature;humidity
48402;BME280;65988;52.422;16.746;2023-07-13T05:07:31;99738.41;;;31.54;44.75
48402;BME280;65988;52.422;16.746;2023-07-13T05:09:58;99785.44;;;31.70;44.85
48402;BME280;65988;52.422;16.746;2023-07-13T05:12:25;99835.19;;;31.93;44.77
48402;BME280;65988;52.422;16.746;2023-07-13T05:14:51;99673.63;;;31.46;44.69
48402;BME280;65988;52.422;16.746;2023-07-13T05:17:16;99775.16;;;30.94;45.95
48402;BME280;65988;52.422;16.746;2023-07-13T05:19:42;99729.88;;;31.01;46.08
48402;BME280;65988;52.422;16.746;2023-07-13T05:22:07;99773.41;;;31.38;45.36
48402;BME280;65988;52.422;16.746;2023-07-13T05:24:33;99625.94;;;31.43;44.64
48402;BME280;65988;52.422;16.746;2023-07-13T05:27:01;99985.78;;;32.22;45.22
48402;BME280;65988;52.422;16.746;2023-07-13T05:29:34;99879.97;;;31.91;45.51
48402;BME280;65988;52.422;16.746;2023-07-13T05:32:23;99913.25;;;31.88;45.60
48402;BME280;65988;52.422;16.746;2023-07-13T05:34:51;99798.63;;;30.99;46.52
48402;BME280;65988;52.422;16.746;2023-07-13T05:37:16;99739.00;;;31.07;46.01
48402;BME280;65988;52.422;16.746;2023-07-13T05:39:44;99947.44;;;31.56;46.36
48402;BME280;65988;52.422;16.746;2023-07-13T05:42:13;99934.69;;;31.73;46.13
48402;BME280;65988;52.422;16.746;2023-07-13T05:44:43;99979.75;;;31.77;46.15
48402;BME280;65988;52.422;16.746;2023-07-13T05:47:11;99825.72;;;31.32;46.10
48402;BME280;65988;52.422;16.746;2023-07-13T05:49:42;99976.78;;;31.86;46.00
48402;BME280;65988;52.422;16.746;2023-07-13T05:52:08;99850.25;;;31.21;46.24
48402;BME280;65988;52.422;16.746;2023-07-13T05:54:35;99826.50;;;31.26;46.05
48402;BME280;65988;52.422;16.746;2023-07-13T05:57:04;99813.91;;;30.90;46.68
48402;BME280;65988;52.422;16.746;2023-07-13T05:59:32;99803.91;;;30.77;46.80
48402;BME280;65988;52.422;16.746;2023-07-13T06:02:01;99977.75;;;31.49;46.78
48402;BME280;65988;52.422;16.746;2023-07-13T06:04:26;99878.25;;;31.10;46.59
48402;BME280;65988;52.422;16.746;2023-07-13T06:06:54;99828.25;;;31.19;46.54
48402;BME280;65988;52.422;16.746;2023-07-13T06:09:22;99872.41;;;31.73;45.89
48402;BME280;65988;52.422;16.746;2023-07-13T06:12:00;100020.94;;;32.84;45.00
48402;BME280;65988;52.422;16.746;2023-07-13T06:14:31;100024.56;;;32.54;45.28
48402;BME280;65988;52.422;16.746;2023-07-13T06:17:00;100058.44;;;33.19;44.44
48402;BME280;65988;52.422;16.746;2023-07-13T06:19:28;99886.88;;;32.57;44.66
48402;BME280;65988;52.422;16.746;2023-07-13T06:21:56;99885.84;;;32.86;44.56
48402;BME280;65988;52.422;16.746;2023-07-13T06:24:35;100092.66;;;33.87;43.91
48402;BME280;65988;52.422;16.746;2023-07-13T06:29:56;99915.03;;;33.71;43.24
48402;BME280;65988;52.422;16.746;2023-07-13T06:32:27;99854.63;;;33.62;43.39
48402;BME280;65988;52.422;16.746;2023-07-13T06:35:06;100069.09;;;34.37;43.16
48402;BME280;65988;52.422;16.746;2023-07-13T06:37:34;100060.84;;;34.45;42.58
48402;BME280;65988;52.422;16.746;2023-07-13T06:40:05;100012.16;;;33.73;43.53
48402;BME280;65988;52.422;16.746;2023-07-13T06:42:36;100016.09;;;34.46;42.42
48402;BME280;65988;52.422;16.746;2023-07-13T06:45:10;99997.81;;;34.01;42.67
48402;BME280;65988;52.422;16.746;2023-07-13T06:47:38;100064.59;;;35.05;41.75
48402;BME280;65988;52.422;16.746;2023-07-13T06:50:27;100033.81;;;35.79;40.61
48402;BME280;65988;52.422;16.746;2023-07-13T06:52:54;99866.84;;;35.56;41.07
48402;BME280;65988;52.422;16.746;2023-07-13T06:55:28;99894.09;;;35.21;40.31
48402;BME280;65988;52.422;16.746;2023-07-13T06:57:53;99713.09;;;35.47;39.21
48402;BME280;65988;52.422;16.746;2023-07-13T07:00:19;99802.88;;;34.15;40.66
48402;BME280;65988;52.422;16.746;2023-07-13T07:02:45;99853.31;;;34.92;40.74
48402;BME280;65988;52.422;16.746;2023-07-13T07:05:10;99699.59;;;33.39;40.42
